Aérodrome :
LOGIN :

S'inscrire | Disclaimer

   EN    FR    IT 

 










Légende :    VFR   VFR Marginal   IFR   IFR Intensif   IFR Très Intensif
Visi : 
Plafond : 
>= 8 km
>= 3000ft
5 à 8 km
1000 à 3000 ft
1500m à 5 km
500 à 1000 ft
800 à 1500m
200 à 500 ft
< 800m
< 200 ft
Symboles :   Orages  Brouillard  Fortes neiges  Fortes précipitations  Vent > 20 kt
SIGMETs :   Divers  Orages  Givrage  Turbulence  Onde Orograph.  Cendres Volcan.






- Altitude de l'aérodrome : 443 ft
- Code IATA : GNA


UMMG - Grodno

DERNIER METAR :
  • 300700Z 36007G10MPS CAVOK M02/M09 Q1019 R35/CLRD// NOSIG

METARs EXPIRÉS :
  • 300600Z 35006G09MPS CAVOK M03/M09 Q1018 R35/CLRD// NOSIG
  • 300530Z 34006G09MPS CAVOK M04/M08 Q1018 NOSIG
  • 300500Z 34006G09MPS CAVOK M04/M08 Q1018 NOSIG

TAF TAF UMMG
Valide du 30 à 05h jusqu'au 30 à 15h UTC


300445Z 3005/3015 35005G10MPS 9999 BKN020
TEMPO 3005/3009 36007G12MPS 5000 -SHSNRA BKN010 SCT015CB
TEMPO 3009/3015 34004G09MPS SCT012



MET'MAP, la Météo Aéronautique d'un coup d'oeil ! - Copyright ORBIFLY Décembre 2007 - Disclaimer

ORBIFLY MET'MAP TEAM :

Programmation & Développement : Alexandra Zaïnal
Sur une idée originale de : Baudouin d'Aumeries
Assistance à la programmation : Marc-Olivier Méhu
Soutien technique & logistique : Manuel Goepfert

Contact : metmap@orbifly.com




SOURCES & CREDITS :

   NOAA